sensor_id;sensor_type;location;lat;lon;timestamp;P1;durP1;ratioP1;P2;durP2;ratioP2
41966;SDS011;27656;53.068;8.818;2023-04-06T00:01:50;14.63;;;9.87;;
41966;SDS011;27656;53.068;8.818;2023-04-06T00:04:17;16.70;;;9.70;;
41966;SDS011;27656;53.068;8.818;2023-04-06T00:06:43;17.60;;;10.50;;
41966;SDS011;27656;53.068;8.818;2023-04-06T00:09:10;20.03;;;11.50;;
41966;SDS011;27656;53.068;8.818;2023-04-06T00:11:36;17.63;;;10.83;;
41966;SDS011;27656;53.068;8.818;2023-04-06T00:50:39;17.85;;;11.25;;
41966;SDS011;27656;53.068;8.818;2023-04-06T00:53:06;18.43;;;12.70;;
41966;SDS011;27656;53.068;8.818;2023-04-06T00:55:32;20.40;;;12.23;;
41966;SDS011;27656;53.068;8.818;2023-04-06T00:57:59;21.23;;;11.83;;
41966;SDS011;27656;53.068;8.818;2023-04-06T01:00:27;16.40;;;11.57;;
41966;SDS011;27656;53.068;8.818;2023-04-06T01:02:53;17.63;;;11.00;;
41966;SDS011;27656;53.068;8.818;2023-04-06T01:05:20;19.80;;;11.33;;
41966;SDS011;27656;53.068;8.818;2023-04-06T01:07:46;19.00;;;12.53;;
41966;SDS011;27656;53.068;8.818;2023-04-06T01:10:23;21.63;;;11.97;;
41966;SDS011;27656;53.068;8.818;2023-04-06T01:12:50;21.20;;;12.20;;
41966;SDS011;27656;53.068;8.818;2023-04-06T01:15:17;18.80;;;12.63;;
41966;SDS011;27656;53.068;8.818;2023-04-06T01:17:43;19.40;;;11.67;;
41966;SDS011;27656;53.068;8.818;2023-04-06T01:20:10;21.17;;;11.23;;
41966;SDS011;27656;53.068;8.818;2023-04-06T01:22:37;20.00;;;12.27;;
41966;SDS011;27656;53.068;8.818;2023-04-06T01:25:04;19.20;;;11.43;;
41966;SDS011;27656;53.068;8.818;2023-04-06T01:27:31;19.13;;;12.47;;
41966;SDS011;27656;53.068;8.818;2023-04-06T01:29:57;18.90;;;12.23;;
41966;SDS011;27656;53.068;8.818;2023-04-06T01:32:24;22.13;;;12.50;;
41966;SDS011;27656;53.068;8.818;2023-04-06T01:34:51;16.80;;;11.27;;
41966;SDS011;27656;53.068;8.818;2023-04-06T01:37:17;18.40;;;12.33;;
41966;SDS011;27656;53.068;8.818;2023-04-06T01:39:44;20.30;;;12.77;;
41966;SDS011;27656;53.068;8.818;2023-04-06T01:42:10;22.53;;;12.93;;
41966;SDS011;27656;53.068;8.818;2023-04-06T01:44:37;22.03;;;13.13;;
41966;SDS011;27656;53.068;8.818;2023-04-06T01:47:03;20.87;;;12.67;;
41966;SDS011;27656;53.068;8.818;2023-04-06T01:49:30;21.37;;;12.57;;
41966;SDS011;27656;53.068;8.818;2023-04-06T01:51:56;20.07;;;12.73;;
41966;SDS011;27656;53.068;8.818;2023-04-06T01:54:22;22.30;;;12.47;;
41966;SDS011;27656;53.068;8.818;2023-04-06T01:56:49;18.87;;;12.07;;
41966;SDS011;27656;53.068;8.818;2023-04-06T01:59:17;19.87;;;11.90;;
41966;SDS011;27656;53.068;8.818;2023-04-06T02:01:44;18.03;;;11.90;;
41966;SDS011;27656;53.068;8.818;2023-04-06T02:04:11;20.30;;;12.50;;
41966;SDS011;27656;53.068;8.818;2023-04-06T02:06:39;22.83;;;12.27;;
41966;SDS011;27656;53.068;8.818;2023-04-06T02:09:06;20.33;;;12.83;;
41966;SDS011;27656;53.068;8.818;2023-04-06T02:11:33;18.23;;;12.37;;
41966;SDS011;27656;53.068;8.818;2023-04-06T02:13:59;19.23;;;11.97;;
41966;SDS011;27656;53.068;8.818;2023-04-06T02:16:27;16.07;;;12.20;;
41966;SDS011;27656;53.068;8.818;2023-04-06T02:18:53;21.00;;;12.03;;
41966;SDS011;27656;53.068;8.818;2023-04-06T02:21:19;20.67;;;12.40;;
41966;SDS011;27656;53.068;8.818;2023-04-06T02:23:46;18.07;;;11.50;;
41966;SDS011;27656;53.068;8.818;2023-04-06T02:26:13;18.50;;;11.17;;
41966;SDS011;27656;53.068;8.818;2023-04-06T02:28:40;17.63;;;11.87;;
41966;SDS011;27656;53.068;8.818;2023-04-06T02:31:07;20.93;;;12.30;;
41966;SDS011;27656;53.068;8.818;2023-04-06T02:33:34;21.93;;;12.60;;
41966;SDS011;27656;53.068;8.818;2023-04-06T02:36:01;24.47;;;11.93;;
41966;SDS011;27656;53.068;8.818;2023-04-06T02:38:27;17.27;;;11.97;;
41966;SDS011;27656;53.068;8.818;2023-04-06T02:40:53;19.23;;;11.37;;
41966;SDS011;27656;53.068;8.818;2023-04-06T02:43:20;16.07;;;11.70;;
41966;SDS011;27656;53.068;8.818;2023-04-06T02:45:46;16.77;;;10.10;;
41966;SDS011;27656;53.068;8.818;2023-04-06T02:48:13;17.07;;;11.13;;
41966;SDS011;27656;53.068;8.818;2023-04-06T02:50:40;19.03;;;11.53;;
41966;SDS011;27656;53.068;8.818;2023-04-06T02:53:06;17.13;;;11.03;;
41966;SDS011;27656;53.068;8.818;2023-04-06T02:55:32;18.40;;;11.90;;
41966;SDS011;27656;53.068;8.818;2023-04-06T02:57:59;19.30;;;11.23;;
41966;SDS011;27656;53.068;8.818;2023-04-06T03:00:26;22.47;;;11.33;;
41966;SDS011;27656;53.068;8.818;2023-04-06T03:02:52;15.63;;;10.57;;
41966;SDS011;27656;53.068;8.818;2023-04-06T03:05:19;19.17;;;10.90;;
41966;SDS011;27656;53.068;8.818;2023-04-06T03:07:45;16.27;;;10.17;;
41966;SDS011;27656;53.068;8.818;2023-04-06T03:10:12;18.73;;;10.30;;
41966;SDS011;27656;53.068;8.818;2023-04-06T03:12:38;19.27;;;11.10;;
41966;SDS011;27656;53.068;8.818;2023-04-06T03:15:05;18.37;;;10.67;;
41966;SDS011;27656;53.068;8.818;2023-04-06T03:17:31;19.07;;;10.93;;
41966;SDS011;27656;53.068;8.818;2023-04-06T03:19:58;14.10;;;10.00;;
41966;SDS011;27656;53.068;8.818;2023-04-06T03:22:24;15.27;;;9.93;;
41966;SDS011;27656;53.068;8.818;2023-04-06T03:24:51;14.67;;;9.37;;
41966;SDS011;27656;53.068;8.818;2023-04-06T03:27:17;18.63;;;11.13;;
41966;SDS011;27656;53.068;8.818;2023-04-06T03:29:44;17.63;;;11.20;;
41966;SDS011;27656;53.068;8.818;2023-04-06T03:32:10;14.03;;;10.50;;
41966;SDS011;27656;53.068;8.818;2023-04-06T03:34:37;15.13;;;10.17;;
41966;SDS011;27656;53.068;8.818;2023-04-06T03:37:04;16.33;;;10.13;;
41966;SDS011;27656;53.068;8.818;2023-04-06T03:39:35;16.73;;;10.03;;
41966;SDS011;27656;53.068;8.818;2023-04-06T03:42:02;15.57;;;10.70;;
41966;SDS011;27656;53.068;8.818;2023-04-06T03:44:28;15.60;;;10.17;;
41966;SDS011;27656;53.068;8.818;2023-04-06T03:46:55;16.43;;;10.50;;
41966;SDS011;27656;53.068;8.818;2023-04-06T03:49:21;14.50;;;10.03;;
41966;SDS011;27656;53.068;8.818;2023-04-06T03:51:48;16.47;;;10.53;;
41966;SDS011;27656;53.068;8.818;2023-04-06T03:54:14;14.70;;;10.27;;
41966;SDS011;27656;53.068;8.818;2023-04-06T03:56:41;15.57;;;10.67;;
41966;SDS011;27656;53.068;8.818;2023-04-06T03:59:07;12.93;;;9.87;;
41966;SDS011;27656;53.068;8.818;2023-04-06T04:01:34;16.83;;;10.80;;
41966;SDS011;27656;53.068;8.818;2023-04-06T04:04:01;21.00;;;11.27;;
41966;SDS011;27656;53.068;8.818;2023-04-06T04:06:27;16.13;;;11.43;;
41966;SDS011;27656;53.068;8.818;2023-04-06T04:08:53;19.20;;;10.97;;
41966;SDS011;27656;53.068;8.818;2023-04-06T04:11:20;15.83;;;11.10;;
41966;SDS011;27656;53.068;8.818;2023-04-06T04:13:46;16.07;;;11.07;;
41966;SDS011;27656;53.068;8.818;2023-04-06T04:16:13;18.47;;;12.60;;
41966;SDS011;27656;53.068;8.818;2023-04-06T04:18:39;19.23;;;10.97;;
41966;SDS011;27656;53.068;8.818;2023-04-06T04:21:06;16.83;;;11.03;;
41966;SDS011;27656;53.068;8.818;2023-04-06T04:23:32;19.13;;;12.67;;
41966;SDS011;27656;53.068;8.818;2023-04-06T04:26:02;18.53;;;11.57;;
41966;SDS011;27656;53.068;8.818;2023-04-06T04:28:28;16.90;;;11.53;;
41966;SDS011;27656;53.068;8.818;2023-04-06T04:30:55;20.10;;;11.83;;
41966;SDS011;27656;53.068;8.818;2023-04-06T04:33:22;20.30;;;13.00;;
41966;SDS011;27656;53.068;8.818;2023-04-06T04:35:48;17.77;;;11.50;;
41966;SDS011;27656;53.068;8.818;2023-04-06T04:38:15;19.57;;;12.57;;
41966;SDS011;27656;53.068;8.818;2023-04-06T04:40:42;17.87;;;11.50;;
41966;SDS011;27656;53.068;8.818;2023-04-06T04:43:08;17.97;;;11.77;;
41966;SDS011;27656;53.068;8.818;2023-04-06T04:45:35;19.33;;;12.40;;
41966;SDS011;27656;53.068;8.818;2023-04-06T04:48:01;16.93;;;11.63;;
41966;SDS011;27656;53.068;8.818;2023-04-06T04:50:28;16.27;;;11.93;;
41966;SDS011;27656;53.068;8.818;2023-04-06T04:52:54;21.07;;;11.40;;
41966;SDS011;27656;53.068;8.818;2023-04-06T04:55:21;22.07;;;12.63;;
41966;SDS011;27656;53.068;8.818;2023-04-06T04:57:47;18.90;;;12.37;;
41966;SDS011;27656;53.068;8.818;2023-04-06T05:00:14;19.63;;;12.70;;
41966;SDS011;27656;53.068;8.818;2023-04-06T05:02:41;22.57;;;12.87;;
41966;SDS011;27656;53.068;8.818;2023-04-06T05:05:07;25.07;;;12.90;;
41966;SDS011;27656;53.068;8.818;2023-04-06T05:07:34;20.30;;;12.00;;
41966;SDS011;27656;53.068;8.818;2023-04-06T05:10:00;19.43;;;12.23;;
41966;SDS011;27656;53.068;8.818;2023-04-06T05:12:27;18.90;;;12.77;;
41966;SDS011;27656;53.068;8.818;2023-04-06T05:14:53;18.33;;;12.83;;
41966;SDS011;27656;53.068;8.818;2023-04-06T05:17:20;23.40;;;12.73;;
41966;SDS011;27656;53.068;8.818;2023-04-06T05:19:47;18.77;;;12.67;;
41966;SDS011;27656;53.068;8.818;2023-04-06T05:22:13;18.13;;;12.03;;
41966;SDS011;27656;53.068;8.818;2023-04-06T05:24:42;19.13;;;11.70;;
41966;SDS011;27656;53.068;8.818;2023-04-06T05:27:08;18.43;;;12.27;;
41966;SDS011;27656;53.068;8.818;2023-04-06T05:29:35;18.10;;;12.93;;
41966;SDS011;27656;53.068;8.818;2023-04-06T05:32:02;20.03;;;12.27;;
41966;SDS011;27656;53.068;8.818;2023-04-06T05:34:28;19.87;;;11.73;;
41966;SDS011;27656;53.068;8.818;2023-04-06T05:36:55;20.27;;;11.97;;
41966;SDS011;27656;53.068;8.818;2023-04-06T05:39:21;16.87;;;12.07;;
41966;SDS011;27656;53.068;8.818;2023-04-06T05:41:48;20.17;;;11.70;;
41966;SDS011;27656;53.068;8.818;2023-04-06T05:44:15;19.23;;;12.03;;
41966;SDS011;27656;53.068;8.818;2023-04-06T05:46:41;14.77;;;12.10;;
41966;SDS011;27656;53.068;8.818;2023-04-06T05:49:08;20.23;;;12.03;;
41966;SDS011;27656;53.068;8.818;2023-04-06T05:51:35;15.63;;;11.57;;
41966;SDS011;27656;53.068;8.818;2023-04-06T05:54:01;17.90;;;11.70;;
41966;SDS011;27656;53.068;8.818;2023-04-06T05:56:27;18.93;;;11.33;;
41966;SDS011;27656;53.068;8.818;2023-04-06T05:58:56;16.63;;;11.33;;
41966;SDS011;27656;53.068;8.818;2023-04-06T06:01:22;15.60;;;11.43;;
41966;SDS011;27656;53.068;8.818;2023-04-06T06:03:49;16.00;;;11.50;;
41966;SDS011;27656;53.068;8.818;2023-04-06T06:06:15;18.03;;;11.60;;
41966;SDS011;27656;53.068;8.818;2023-04-06T06:08:42;19.87;;;10.77;;
41966;SDS011;27656;53.068;8.818;2023-04-06T06:11:08;18.40;;;11.33;;
41966;SDS011;27656;53.068;8.818;2023-04-06T06:13:34;15.93;;;11.20;;
41966;SDS011;27656;53.068;8.818;2023-04-06T06:16:01;14.90;;;10.30;;
41966;SDS011;27656;53.068;8.818;2023-04-06T06:18:31;17.47;;;11.00;;
41966;SDS011;27656;53.068;8.818;2023-04-06T06:20:58;16.40;;;11.30;;
41966;SDS011;27656;53.068;8.818;2023-04-06T06:23:24;17.27;;;10.53;;
41966;SDS011;27656;53.068;8.818;2023-04-06T06:25:51;19.60;;;10.37;;
41966;SDS011;27656;53.068;8.818;2023-04-06T06:28:17;14.23;;;10.30;;
41966;SDS011;27656;53.068;8.818;2023-04-06T06:30:44;13.87;;;10.00;;
41966;SDS011;27656;53.068;8.818;2023-04-06T06:33:10;13.27;;;10.03;;
41966;SDS011;27656;53.068;8.818;2023-04-06T06:35:37;15.10;;;10.20;;
41966;SDS011;27656;53.068;8.818;2023-04-06T06:38:03;14.77;;;10.03;;
41966;SDS011;27656;53.068;8.818;2023-04-06T06:40:30;18.63;;;10.07;;
41966;SDS011;27656;53.068;8.818;2023-04-06T06:42:56;15.63;;;9.80;;
41966;SDS011;27656;53.068;8.818;2023-04-06T06:45:23;14.83;;;9.60;;
41966;SDS011;27656;53.068;8.818;2023-04-06T06:47:51;13.37;;;9.47;;
41966;SDS011;27656;53.068;8.818;2023-04-06T06:50:20;17.10;;;9.67;;
41966;SDS011;27656;53.068;8.818;2023-04-06T06:52:47;13.97;;;8.90;;
41966;SDS011;27656;53.068;8.818;2023-04-06T06:55:13;12.80;;;8.53;;
41966;SDS011;27656;53.068;8.818;2023-04-06T06:57:41;12.07;;;8.60;;
41966;SDS011;27656;53.068;8.818;2023-04-06T07:00:08;12.77;;;8.73;;
41966;SDS011;27656;53.068;8.818;2023-04-06T07:02:38;10.57;;;7.80;;
41966;SDS011;27656;53.068;8.818;2023-04-06T07:05:05;12.83;;;8.60;;
41966;SDS011;27656;53.068;8.818;2023-04-06T07:07:52;13.17;;;8.00;;
41966;SDS011;27656;53.068;8.818;2023-04-06T07:10:19;14.53;;;8.67;;
41966;SDS011;27656;53.068;8.818;2023-04-06T07:12:46;13.13;;;8.23;;
41966;SDS011;27656;53.068;8.818;2023-04-06T07:15:12;10.87;;;8.13;;
41966;SDS011;27656;53.068;8.818;2023-04-06T07:17:39;12.37;;;7.90;;
41966;SDS011;27656;53.068;8.818;2023-04-06T07:20:07;13.50;;;8.00;;
41966;SDS011;27656;53.068;8.818;2023-04-06T07:22:34;12.33;;;8.20;;
41966;SDS011;27656;53.068;8.818;2023-04-06T07:25:01;11.07;;;7.97;;
41966;SDS011;27656;53.068;8.818;2023-04-06T07:27:27;11.93;;;7.80;;
41966;SDS011;27656;53.068;8.818;2023-04-06T07:29:54;11.13;;;8.33;;
41966;SDS011;27656;53.068;8.818;2023-04-06T07:32:20;10.77;;;7.83;;
41966;SDS011;27656;53.068;8.818;2023-04-06T07:34:47;14.60;;;8.27;;
41966;SDS011;27656;53.068;8.818;2023-04-06T07:37:13;11.13;;;7.83;;
41966;SDS011;27656;53.068;8.818;2023-04-06T07:39:40;10.83;;;8.20;;
41966;SDS011;27656;53.068;8.818;2023-04-06T07:42:06;13.53;;;8.13;;
41966;SDS011;27656;53.068;8.818;2023-04-06T07:44:33;12.03;;;7.83;;
41966;SDS011;27656;53.068;8.818;2023-04-06T07:46:59;11.83;;;8.07;;
41966;SDS011;27656;53.068;8.818;2023-04-06T07:49:26;9.73;;;7.70;;
41966;SDS011;27656;53.068;8.818;2023-04-06T07:51:53;10.03;;;8.13;;
41966;SDS011;27656;53.068;8.818;2023-04-06T07:54:20;12.00;;;8.00;;
41966;SDS011;27656;53.068;8.818;2023-04-06T07:56:46;13.83;;;7.50;;
41966;SDS011;27656;53.068;8.818;2023-04-06T07:59:13;11.10;;;7.77;;
41966;SDS011;27656;53.068;8.818;2023-04-06T08:01:39;9.93;;;7.50;;
41966;SDS011;27656;53.068;8.818;2023-04-06T08:04:06;11.13;;;7.90;;
41966;SDS011;27656;53.068;8.818;2023-04-06T08:06:33;11.53;;;8.20;;
41966;SDS011;27656;53.068;8.818;2023-04-06T08:09:00;10.90;;;8.33;;
41966;SDS011;27656;53.068;8.818;2023-04-06T08:11:26;14.57;;;8.43;;
41966;SDS011;27656;53.068;8.818;2023-04-06T08:13:53;12.63;;;8.27;;
41966;SDS011;27656;53.068;8.818;2023-04-06T08:16:21;9.53;;;7.80;;
41966;SDS011;27656;53.068;8.818;2023-04-06T08:18:48;16.07;;;7.90;;
41966;SDS011;27656;53.068;8.818;2023-04-06T08:21:14;11.07;;;8.57;;
41966;SDS011;27656;53.068;8.818;2023-04-06T08:23:41;11.23;;;7.60;;
41966;SDS011;27656;53.068;8.818;2023-04-06T08:26:07;12.37;;;7.60;;
41966;SDS011;27656;53.068;8.818;2023-04-06T08:28:34;10.43;;;7.93;;
41966;SDS011;27656;53.068;8.818;2023-04-06T08:31:07;12.23;;;8.17;;
41966;SDS011;27656;53.068;8.818;2023-04-06T08:33:34;13.30;;;8.53;;
41966;SDS011;27656;53.068;8.818;2023-04-06T08:36:12;12.67;;;8.20;;
41966;SDS011;27656;53.068;8.818;2023-04-06T08:38:39;12.13;;;8.07;;
41966;SDS011;27656;53.068;8.818;2023-04-06T08:41:09;10.03;;;7.80;;
41966;SDS011;27656;53.068;8.818;2023-04-06T08:43:47;11.00;;;8.33;;
41966;SDS011;27656;53.068;8.818;2023-04-06T08:46:14;11.37;;;7.97;;
41966;SDS011;27656;53.068;8.818;2023-04-06T08:48:42;11.97;;;8.03;;
41966;SDS011;27656;53.068;8.818;2023-04-06T08:51:09;12.40;;;7.87;;
41966;SDS011;27656;53.068;8.818;2023-04-06T08:53:36;8.97;;;7.87;;
41966;SDS011;27656;53.068;8.818;2023-04-06T08:56:03;9.27;;;7.70;;
41966;SDS011;27656;53.068;8.818;2023-04-06T08:58:32;12.97;;;7.30;;
41966;SDS011;27656;53.068;8.818;2023-04-06T09:01:06;9.27;;;7.30;;
41966;SDS011;27656;53.068;8.818;2023-04-06T09:03:38;10.33;;;7.77;;
41966;SDS011;27656;53.068;8.818;2023-04-06T09:06:08;10.43;;;7.57;;
41966;SDS011;27656;53.068;8.818;2023-04-06T09:08:37;11.50;;;7.23;;
41966;SDS011;27656;53.068;8.818;2023-04-06T09:11:04;11.57;;;7.43;;
41966;SDS011;27656;53.068;8.818;2023-04-06T09:13:31;9.30;;;7.27;;
41966;SDS011;27656;53.068;8.818;2023-04-06T09:15:59;10.03;;;7.33;;
41966;SDS011;27656;53.068;8.818;2023-04-06T09:18:29;10.17;;;7.57;;
41966;SDS011;27656;53.068;8.818;2023-04-06T09:20:58;10.67;;;7.20;;
41966;SDS011;27656;53.068;8.818;2023-04-06T09:23:28;10.47;;;7.80;;
41966;SDS011;27656;53.068;8.818;2023-04-06T09:26:04;11.17;;;7.17;;
41966;SDS011;27656;53.068;8.818;2023-04-06T09:28:44;12.07;;;7.87;;
41966;SDS011;27656;53.068;8.818;2023-04-06T09:31:13;9.07;;;7.20;;
41966;SDS011;27656;53.068;8.818;2023-04-06T09:33:41;14.97;;;7.83;;
41966;SDS011;27656;53.068;8.818;2023-04-06T09:36:08;10.53;;;7.67;;
41966;SDS011;27656;53.068;8.818;2023-04-06T09:38:36;9.90;;;7.67;;
41966;SDS011;27656;53.068;8.818;2023-04-06T09:41:04;12.97;;;8.37;;
41966;SDS011;27656;53.068;8.818;2023-04-06T09:43:30;10.57;;;8.10;;
41966;SDS011;27656;53.068;8.818;2023-04-06T09:45:57;11.37;;;8.07;;
41966;SDS011;27656;53.068;8.818;2023-04-06T09:48:25;10.47;;;7.70;;
41966;SDS011;27656;53.068;8.818;2023-04-06T09:50:56;11.50;;;7.37;;
41966;SDS011;27656;53.068;8.818;2023-04-06T09:53:26;13.43;;;7.60;;
41966;SDS011;27656;53.068;8.818;2023-04-06T09:55:53;13.10;;;8.13;;
41966;SDS011;27656;53.068;8.818;2023-04-06T09:58:23;18.23;;;8.40;;
41966;SDS011;27656;53.068;8.818;2023-04-06T10:06:20;12.27;;;8.07;;
41966;SDS011;27656;53.068;8.818;2023-04-06T10:08:49;11.03;;;8.03;;
41966;SDS011;27656;53.068;8.818;2023-04-06T10:11:16;13.13;;;8.37;;
41966;SDS011;27656;53.068;8.818;2023-04-06T10:13:42;14.97;;;8.63;;
41966;SDS011;27656;53.068;8.818;2023-04-06T10:16:10;10.87;;;7.77;;
41966;SDS011;27656;53.068;8.818;2023-04-06T10:18:39;12.83;;;9.07;;
41966;SDS011;27656;53.068;8.818;2023-04-06T10:21:11;12.63;;;9.10;;
41966;SDS011;27656;53.068;8.818;2023-04-06T10:23:45;12.20;;;8.87;;
41966;SDS011;27656;53.068;8.818;2023-04-06T10:26:26;11.73;;;8.73;;
41966;SDS011;27656;53.068;8.818;2023-04-06T10:28:54;13.30;;;8.70;;
41966;SDS011;27656;53.068;8.818;2023-04-06T10:31:27;11.73;;;8.33;;
41966;SDS011;27656;53.068;8.818;2023-04-06T10:33:54;13.53;;;8.57;;
41966;SDS011;27656;53.068;8.818;2023-04-06T10:36:22;14.80;;;9.30;;
41966;SDS011;27656;53.068;8.818;2023-04-06T10:39:02;12.03;;;8.80;;
41966;SDS011;27656;53.068;8.818;2023-04-06T10:41:33;12.20;;;9.10;;
41966;SDS011;27656;53.068;8.818;2023-04-06T10:44:23;19.63;;;9.53;;
41966;SDS011;27656;53.068;8.818;2023-04-06T10:46:57;13.50;;;9.80;;
41966;SDS011;27656;53.068;8.818;2023-04-06T10:49:26;15.60;;;9.63;;
41966;SDS011;27656;53.068;8.818;2023-04-06T10:51:53;14.60;;;8.97;;
41966;SDS011;27656;53.068;8.818;2023-04-06T10:54:23;14.77;;;9.07;;
41966;SDS011;27656;53.068;8.818;2023-04-06T10:56:51;44.53;;;10.60;;
41966;SDS011;27656;53.068;8.818;2023-04-06T10:59:21;15.37;;;9.07;;
41966;SDS011;27656;53.068;8.818;2023-04-06T11:01:48;13.23;;;9.13;;
41966;SDS011;27656;53.068;8.818;2023-04-06T11:04:16;12.37;;;8.93;;
41966;SDS011;27656;53.068;8.818;2023-04-06T11:06:47;14.23;;;8.87;;
41966;SDS011;27656;53.068;8.818;2023-04-06T11:09:24;17.10;;;7.47;;
41966;SDS011;27656;53.068;8.818;2023-04-06T11:11:52;16.73;;;9.40;;
41966;SDS011;27656;53.068;8.818;2023-04-06T11:14:18;13.67;;;8.30;;
41966;SDS011;27656;53.068;8.818;2023-04-06T11:16:46;12.73;;;9.63;;
41966;SDS011;27656;53.068;8.818;2023-04-06T11:19:14;14.53;;;8.97;;
41966;SDS011;27656;53.068;8.818;2023-04-06T11:21:44;15.63;;;9.47;;
41966;SDS011;27656;53.068;8.818;2023-04-06T11:24:15;14.73;;;9.63;;
41966;SDS011;27656;53.068;8.818;2023-04-06T11:26:43;17.23;;;9.60;;
41966;SDS011;27656;53.068;8.818;2023-04-06T11:29:18;17.03;;;9.70;;
41966;SDS011;27656;53.068;8.818;2023-04-06T11:31:46;13.13;;;9.40;;
41966;SDS011;27656;53.068;8.818;2023-04-06T11:34:18;11.83;;;8.67;;
41966;SDS011;27656;53.068;8.818;2023-04-06T11:36:46;12.57;;;9.47;;
41966;SDS011;27656;53.068;8.818;2023-04-06T11:39:18;12.63;;;8.90;;
41966;SDS011;27656;53.068;8.818;2023-04-06T11:41:49;12.30;;;8.73;;
41966;SDS011;27656;53.068;8.818;2023-04-06T11:44:38;12.90;;;9.03;;
41966;SDS011;27656;53.068;8.818;2023-04-06T11:47:06;12.93;;;8.53;;
41966;SDS011;27656;53.068;8.818;2023-04-06T11:49:36;13.53;;;9.07;;
41966;SDS011;27656;53.068;8.818;2023-04-06T11:52:13;12.53;;;9.13;;
41966;SDS011;27656;53.068;8.818;2023-04-06T11:54:48;13.80;;;8.93;;
41966;SDS011;27656;53.068;8.818;2023-04-06T11:57:16;12.60;;;8.87;;
41966;SDS011;27656;53.068;8.818;2023-04-06T11:59:44;12.80;;;8.30;;
41966;SDS011;27656;53.068;8.818;2023-04-06T12:02:10;14.07;;;9.37;;
41966;SDS011;27656;53.068;8.818;2023-04-06T12:04:37;10.70;;;8.53;;
41966;SDS011;27656;53.068;8.818;2023-04-06T12:07:04;14.63;;;9.57;;
41966;SDS011;27656;53.068;8.818;2023-04-06T12:09:31;13.33;;;8.90;;
41966;SDS011;27656;53.068;8.818;2023-04-06T12:11:57;17.00;;;9.77;;
41966;SDS011;27656;53.068;8.818;2023-04-06T12:14:24;14.50;;;8.60;;
41966;SDS011;27656;53.068;8.818;2023-04-06T12:16:51;13.17;;;8.67;;
41966;SDS011;27656;53.068;8.818;2023-04-06T12:19:17;16.53;;;9.97;;
41966;SDS011;27656;53.068;8.818;2023-04-06T12:21:44;14.37;;;9.33;;
41966;SDS011;27656;53.068;8.818;2023-04-06T12:24:10;16.13;;;9.80;;
41966;SDS011;27656;53.068;8.818;2023-04-06T12:26:37;13.40;;;9.27;;
41966;SDS011;27656;53.068;8.818;2023-04-06T12:29:03;15.77;;;8.53;;
41966;SDS011;27656;53.068;8.818;2023-04-06T12:31:37;12.07;;;8.57;;
41966;SDS011;27656;53.068;8.818;2023-04-06T12:34:07;15.47;;;9.00;;
41966;SDS011;27656;53.068;8.818;2023-04-06T12:36:33;12.10;;;8.00;;
41966;SDS011;27656;53.068;8.818;2023-04-06T12:39:00;15.07;;;9.57;;
41966;SDS011;27656;53.068;8.818;2023-04-06T12:41:28;11.97;;;8.80;;
41966;SDS011;27656;53.068;8.818;2023-04-06T12:43:55;14.90;;;9.87;;
41966;SDS011;27656;53.068;8.818;2023-04-06T12:46:22;12.47;;;9.07;;
41966;SDS011;27656;53.068;8.818;2023-04-06T12:48:49;10.63;;;8.33;;
41966;SDS011;27656;53.068;8.818;2023-04-06T12:51:19;14.50;;;9.60;;
41966;SDS011;27656;53.068;8.818;2023-04-06T12:53:46;16.87;;;10.20;;
41966;SDS011;27656;53.068;8.818;2023-04-06T12:56:14;13.40;;;9.27;;
41966;SDS011;27656;53.068;8.818;2023-04-06T12:58:41;13.60;;;9.17;;
41966;SDS011;27656;53.068;8.818;2023-04-06T13:01:08;13.97;;;9.53;;
41966;SDS011;27656;53.068;8.818;2023-04-06T13:03:35;19.40;;;9.60;;
41966;SDS011;27656;53.068;8.818;2023-04-06T13:06:02;14.87;;;9.47;;
41966;SDS011;27656;53.068;8.818;2023-04-06T13:08:29;15.37;;;9.87;;
41966;SDS011;27656;53.068;8.818;2023-04-06T13:10:55;14.20;;;9.23;;
41966;SDS011;27656;53.068;8.818;2023-04-06T13:13:24;12.70;;;8.90;;
41966;SDS011;27656;53.068;8.818;2023-04-06T13:15:52;12.67;;;8.87;;
41966;SDS011;27656;53.068;8.818;2023-04-06T13:18:19;11.70;;;8.53;;
41966;SDS011;27656;53.068;8.818;2023-04-06T13:20:46;12.43;;;9.23;;
41966;SDS011;27656;53.068;8.818;2023-04-06T13:23:13;13.20;;;9.23;;
41966;SDS011;27656;53.068;8.818;2023-04-06T13:25:40;16.17;;;9.80;;
41966;SDS011;27656;53.068;8.818;2023-04-06T13:28:07;14.87;;;10.00;;
41966;SDS011;27656;53.068;8.818;2023-04-06T13:30:34;14.77;;;9.73;;
41966;SDS011;27656;53.068;8.818;2023-04-06T13:33:01;13.47;;;9.00;;
41966;SDS011;27656;53.068;8.818;2023-04-06T13:35:28;13.13;;;9.27;;
41966;SDS011;27656;53.068;8.818;2023-04-06T13:37:55;16.70;;;8.17;;
41966;SDS011;27656;53.068;8.818;2023-04-06T13:40:21;15.90;;;8.73;;
41966;SDS011;27656;53.068;8.818;2023-04-06T13:42:48;16.73;;;8.93;;
41966;SDS011;27656;53.068;8.818;2023-04-06T13:45:14;12.33;;;8.27;;
41966;SDS011;27656;53.068;8.818;2023-04-06T13:47:41;13.37;;;9.37;;
41966;SDS011;27656;53.068;8.818;2023-04-06T13:50:07;17.73;;;8.87;;
41966;SDS011;27656;53.068;8.818;2023-04-06T13:52:34;14.17;;;9.60;;
41966;SDS011;27656;53.068;8.818;2023-04-06T13:55:02;15.17;;;10.03;;
41966;SDS011;27656;53.068;8.818;2023-04-06T13:57:28;15.60;;;10.17;;
41966;SDS011;27656;53.068;8.818;2023-04-06T13:59:56;14.47;;;9.93;;
41966;SDS011;27656;53.068;8.818;2023-04-06T14:02:22;13.60;;;9.40;;
41966;SDS011;27656;53.068;8.818;2023-04-06T14:04:53;19.70;;;11.30;;
41966;SDS011;27656;53.068;8.818;2023-04-06T14:07:20;14.37;;;10.03;;
41966;SDS011;27656;53.068;8.818;2023-04-06T14:09:49;13.63;;;9.97;;
41966;SDS011;27656;53.068;8.818;2023-04-06T14:12:15;25.47;;;16.77;;
41966;SDS011;27656;53.068;8.818;2023-04-06T14:14:42;14.00;;;9.13;;
41966;SDS011;27656;53.068;8.818;2023-04-06T14:19:35;13.40;;;9.40;;
41966;SDS011;27656;53.068;8.818;2023-04-06T14:22:02;14.57;;;9.47;;
41966;SDS011;27656;53.068;8.818;2023-04-06T14:24:28;12.40;;;8.40;;
41966;SDS011;27656;53.068;8.818;2023-04-06T14:26:55;15.33;;;9.67;;
41966;SDS011;27656;53.068;8.818;2023-04-06T14:29:22;12.23;;;8.23;;
41966;SDS011;27656;53.068;8.818;2023-04-06T14:31:49;12.90;;;8.57;;
41966;SDS011;27656;53.068;8.818;2023-04-06T14:34:15;13.87;;;8.80;;
41966;SDS011;27656;53.068;8.818;2023-04-06T14:36:42;18.53;;;9.50;;
41966;SDS011;27656;53.068;8.818;2023-04-06T14:39:09;13.10;;;8.60;;
41966;SDS011;27656;53.068;8.818;2023-04-06T14:41:36;19.10;;;8.63;;
41966;SDS011;27656;53.068;8.818;2023-04-06T14:44:02;13.37;;;8.70;;
41966;SDS011;27656;53.068;8.818;2023-04-06T14:46:29;17.67;;;9.60;;
41966;SDS011;27656;53.068;8.818;2023-04-06T14:48:56;15.93;;;9.20;;
41966;SDS011;27656;53.068;8.818;2023-04-06T14:51:25;15.97;;;9.70;;
41966;SDS011;27656;53.068;8.818;2023-04-06T14:53:53;15.30;;;9.67;;
41966;SDS011;27656;53.068;8.818;2023-04-06T14:56:21;14.67;;;8.20;;
41966;SDS011;27656;53.068;8.818;2023-04-06T14:58:48;8.83;;;6.07;;
41966;SDS011;27656;53.068;8.818;2023-04-06T15:01:17;13.97;;;8.40;;
41966;SDS011;27656;53.068;8.818;2023-04-06T15:03:47;15.33;;;9.20;;
41966;SDS011;27656;53.068;8.818;2023-04-06T15:06:15;16.30;;;9.73;;
41966;SDS011;27656;53.068;8.818;2023-04-06T15:08:43;13.37;;;9.10;;
41966;SDS011;27656;53.068;8.818;2023-04-06T15:11:11;13.90;;;8.40;;
41966;SDS011;27656;53.068;8.818;2023-04-06T15:13:38;14.27;;;9.00;;
41966;SDS011;27656;53.068;8.818;2023-04-06T15:16:06;12.90;;;8.50;;